createdAt,value
2022-11-02T00:00:23.733Z,0.00
2022-11-02T00:01:23.730Z,0.00
2022-11-02T00:02:23.747Z,0.00
2022-11-02T00:03:23.696Z,0.00
2022-11-02T00:04:23.678Z,0.00
2022-11-02T00:05:23.670Z,0.00
2022-11-02T00:06:23.677Z,0.00
2022-11-02T00:07:23.665Z,0.00
2022-11-02T00:08:23.639Z,0.00
2022-11-02T00:09:23.626Z,0.00
2022-11-02T00:10:23.607Z,0.00
2022-11-02T00:11:23.615Z,0.00
2022-11-02T00:12:23.626Z,0.00
2022-11-02T00:13:23.590Z,0.00
2022-11-02T00:14:23.546Z,0.00
2022-11-02T00:15:23.558Z,0.00
2022-11-02T00:16:23.554Z,0.00
2022-11-02T00:17:23.547Z,0.00
2022-11-02T00:18:23.970Z,0.00
2022-11-02T00:19:23.529Z,0.00
2022-11-02T00:20:23.511Z,0.00
2022-11-02T00:21:23.498Z,0.00
2022-11-02T00:22:23.478Z,0.00
2022-11-02T00:23:23.467Z,0.00
2022-11-02T00:24:23.458Z,0.00
2022-11-02T00:25:23.437Z,0.00
2022-11-02T00:26:23.435Z,0.00
2022-11-02T00:27:23.406Z,0.00
2022-11-02T00:28:23.427Z,0.00
2022-11-02T00:29:23.419Z,0.00
2022-11-02T00:30:23.389Z,0.00
2022-11-02T00:31:23.382Z,0.00
2022-11-02T00:32:23.358Z,0.00
2022-11-02T00:33:23.358Z,0.00
2022-11-02T00:34:23.330Z,0.00
2022-11-02T00:35:23.338Z,0.00
2022-11-02T00:36:23.318Z,0.00
2022-11-02T00:37:23.343Z,0.00
2022-11-02T00:38:23.316Z,0.00
2022-11-02T00:39:23.319Z,0.00
2022-11-02T00:40:23.271Z,0.00
2022-11-02T00:41:23.278Z,0.00
2022-11-02T00:42:23.250Z,0.00
2022-11-02T00:43:23.260Z,0.00
2022-11-02T00:44:23.252Z,0.00
2022-11-02T00:45:23.225Z,0.00
2022-11-02T00:46:23.242Z,0.00
2022-11-02T00:47:23.194Z,0.00
2022-11-02T00:48:23.183Z,0.00
2022-11-02T00:49:23.179Z,0.00
2022-11-02T00:50:23.195Z,0.00
2022-11-02T00:51:23.146Z,0.00
2022-11-02T00:52:23.151Z,0.00
2022-11-02T00:53:23.120Z,0.00
2022-11-02T00:54:25.959Z,0.00
2022-11-02T00:55:24.110Z,0.00
2022-11-02T00:56:23.091Z,0.00
2022-11-02T00:57:23.080Z,0.00
2022-11-02T00:58:23.220Z,0.00
2022-11-02T00:59:23.070Z,0.00
2022-11-02T01:00:23.062Z,0.00
2022-11-02T01:01:23.161Z,0.00
2022-11-02T01:02:23.141Z,0.00
2022-11-02T01:03:23.013Z,0.00
2022-11-02T01:04:22.991Z,0.00
2022-11-02T01:05:22.992Z,0.00
2022-11-02T01:06:23.004Z,0.00
2022-11-02T01:07:22.972Z,0.00
2022-11-02T01:08:22.970Z,0.00
2022-11-02T01:09:22.945Z,0.00
2022-11-02T01:10:22.931Z,0.00
2022-11-02T01:13:44.295Z,0.00
2022-11-02T01:14:43.642Z,0.00
2022-11-02T01:15:43.660Z,0.00
2022-11-02T01:16:43.628Z,0.00
2022-11-02T01:17:43.603Z,0.00
2022-11-02T01:18:43.605Z,0.00
2022-11-02T01:19:43.586Z,0.00
2022-11-02T01:20:43.581Z,0.00
2022-11-02T01:21:43.581Z,0.00
2022-11-02T01:22:43.545Z,0.00
2022-11-02T01:23:43.561Z,0.00
2022-11-02T01:24:43.546Z,0.00
2022-11-02T01:25:43.529Z,0.00
2022-11-02T01:26:43.549Z,0.00
2022-11-02T01:27:43.540Z,0.00
2022-11-02T01:28:43.511Z,0.00
2022-11-02T01:29:43.517Z,0.00
2022-11-02T01:30:43.469Z,0.00
2022-11-02T01:31:43.470Z,0.00
2022-11-02T01:32:43.470Z,0.00
2022-11-02T01:33:43.480Z,0.00
2022-11-02T01:34:43.414Z,0.00
2022-11-02T01:35:43.429Z,0.00
2022-11-02T01:36:43.421Z,0.00
2022-11-02T01:37:43.385Z,0.00
2022-11-02T01:38:43.365Z,0.00
2022-11-02T01:39:43.424Z,0.00
2022-11-02T01:40:43.349Z,0.00
2022-11-02T01:41:43.329Z,0.00
2022-11-02T01:42:43.347Z,0.00
2022-11-02T01:43:43.309Z,0.00
2022-11-02T01:44:43.322Z,0.00
2022-11-02T01:45:43.310Z,0.00
2022-11-02T01:46:43.293Z,0.00
2022-11-02T01:47:43.285Z,0.00
2022-11-02T01:48:43.315Z,0.00
2022-11-02T01:49:43.261Z,0.00
2022-11-02T01:50:43.241Z,0.00
2022-11-02T01:51:43.234Z,0.00
2022-11-02T01:52:43.219Z,0.00
2022-11-02T01:53:43.214Z,0.00
2022-11-02T01:54:43.194Z,0.00
2022-11-02T01:55:43.174Z,0.00
2022-11-02T01:56:43.182Z,0.00
2022-11-02T01:57:43.186Z,0.00
2022-11-02T01:58:43.162Z,0.00
2022-11-02T01:59:43.145Z,0.00
2022-11-02T02:00:43.125Z,0.00
2022-11-02T02:01:43.264Z,0.00
2022-11-02T02:02:43.184Z,0.00
2022-11-02T02:03:43.114Z,0.00
2022-11-02T02:04:43.074Z,0.00
2022-11-02T02:05:43.073Z,0.00
2022-11-02T02:07:05.837Z,0.00
2022-11-02T02:07:43.040Z,0.00
2022-11-02T02:08:43.035Z,0.00
2022-11-02T02:09:47.155Z,0.00
2022-11-02T02:10:44.004Z,0.00
2022-11-02T02:11:43.004Z,0.00
2022-11-02T02:12:42.960Z,0.00
2022-11-02T02:13:42.992Z,0.00
2022-11-02T02:14:42.992Z,0.00
2022-11-02T02:15:42.952Z,0.00
2022-11-02T02:16:42.942Z,0.00
2022-11-02T02:17:42.931Z,0.00
2022-11-02T02:18:42.912Z,0.00
2022-11-02T02:19:42.916Z,0.00
2022-11-02T02:20:42.873Z,0.00
2022-11-02T02:21:42.885Z,0.00
2022-11-02T02:22:42.873Z,0.00
2022-11-02T02:23:42.853Z,0.00
2022-11-02T02:24:42.845Z,0.00
2022-11-02T02:25:42.837Z,0.00
2022-11-02T02:26:42.826Z,0.00
2022-11-02T02:27:42.814Z,0.00
2022-11-02T02:28:42.792Z,0.00
2022-11-02T02:29:42.785Z,0.00
2022-11-02T02:30:42.784Z,0.00
2022-11-02T02:31:42.776Z,0.00
2022-11-02T02:32:42.757Z,0.00
2022-11-02T02:33:42.745Z,0.00
2022-11-02T02:34:42.734Z,0.00
2022-11-02T02:35:42.717Z,0.00
2022-11-02T02:36:42.732Z,0.00
2022-11-02T02:37:42.712Z,0.00
2022-11-02T02:38:42.685Z,0.00
2022-11-02T02:39:42.667Z,0.00
2022-11-02T02:40:42.649Z,0.00
2022-11-02T02:41:42.645Z,0.00
2022-11-02T02:42:42.654Z,0.00
2022-11-02T02:43:42.644Z,0.00
2022-11-02T02:44:42.619Z,0.00
2022-11-02T02:45:42.627Z,0.00
2022-11-02T02:46:42.999Z,0.00
2022-11-02T02:47:42.597Z,0.00
2022-11-02T02:48:42.565Z,0.00
2022-11-02T02:49:42.592Z,0.00
2022-11-02T02:50:42.528Z,0.00
2022-11-02T02:51:42.545Z,0.00
2022-11-02T02:52:42.533Z,0.00
2022-11-02T02:53:42.525Z,0.00
2022-11-02T02:54:42.509Z,0.00
2022-11-02T02:55:42.484Z,0.00
2022-11-02T02:56:42.502Z,0.00
2022-11-02T02:57:42.457Z,0.00
2022-11-02T02:58:42.493Z,0.00
2022-11-02T02:59:42.499Z,0.00
2022-11-02T03:00:42.497Z,0.00
2022-11-02T03:01:42.612Z,0.00
2022-11-02T03:02:42.637Z,0.00
2022-11-02T03:03:42.597Z,0.00
2022-11-02T03:04:42.629Z,0.00
2022-11-02T03:05:42.649Z,0.00
2022-11-02T03:06:42.365Z,0.00
2022-11-02T03:07:42.370Z,0.00
2022-11-02T03:08:42.758Z,0.00
2022-11-02T03:09:42.334Z,0.00
2022-11-02T03:10:42.305Z,0.00
2022-11-02T03:11:42.333Z,0.00
2022-11-02T03:12:42.289Z,0.00
2022-11-02T03:13:42.298Z,0.00
2022-11-02T03:14:42.277Z,0.00
2022-11-02T03:15:42.256Z,0.00
2022-11-02T03:16:42.261Z,0.00
2022-11-02T03:17:42.271Z,0.00
2022-11-02T03:18:42.221Z,0.00
2022-11-02T03:19:42.241Z,0.00
2022-11-02T03:20:42.201Z,0.00
2022-11-02T03:21:42.183Z,0.00
2022-11-02T03:22:42.224Z,0.00
2022-11-02T03:23:42.190Z,0.00
2022-11-02T03:24:42.178Z,0.00
2022-11-02T03:25:42.161Z,0.00
2022-11-02T03:26:42.121Z,0.00
2022-11-02T03:27:42.166Z,0.00
2022-11-02T03:28:42.109Z,0.00
2022-11-02T03:29:42.121Z,0.00
2022-11-02T03:30:42.093Z,0.00
2022-11-02T03:31:42.085Z,0.00
2022-11-02T03:32:42.073Z,0.00
2022-11-02T03:33:42.067Z,0.00
2022-11-02T03:34:42.066Z,0.00
2022-11-02T03:35:42.061Z,0.00
2022-11-02T03:36:42.011Z,0.00
2022-11-02T03:37:42.023Z,0.00
2022-11-02T03:38:42.002Z,0.00
2022-11-02T03:39:42.014Z,0.00
2022-11-02T03:40:41.990Z,0.00
2022-11-02T03:41:41.991Z,0.00
2022-11-02T03:42:42.130Z,0.00
2022-11-02T03:43:41.981Z,0.00
2022-11-02T03:44:41.927Z,0.00
2022-11-02T03:45:41.922Z,0.00
2022-11-02T03:46:41.947Z,0.00
2022-11-02T03:47:41.902Z,0.00
2022-11-02T03:48:41.964Z,0.00
2022-11-02T03:49:41.902Z,0.00
2022-11-02T03:50:41.884Z,0.00
2022-11-02T03:51:41.850Z,0.00
2022-11-02T03:52:41.846Z,0.00
2022-11-02T03:53:41.831Z,0.00
2022-11-02T03:54:41.842Z,0.00
2022-11-02T03:55:41.814Z,0.00
2022-11-02T03:56:41.794Z,0.00
2022-11-02T03:57:41.808Z,0.00
2022-11-02T03:58:41.792Z,0.00
2022-11-02T03:59:41.802Z,0.00
2022-11-02T04:00:41.770Z,0.00
2022-11-02T04:01:41.777Z,0.00
2022-11-02T04:02:41.941Z,0.00
2022-11-02T04:03:41.735Z,0.00
2022-11-02T04:04:41.730Z,0.00
2022-11-02T04:05:41.714Z,0.00
2022-11-02T04:06:41.676Z,0.00
2022-11-02T04:07:41.677Z,0.00
2022-11-02T04:08:41.654Z,0.00
2022-11-02T04:09:41.675Z,0.00
2022-11-02T04:10:41.664Z,0.00
2022-11-02T04:11:41.637Z,0.00
2022-11-02T04:12:41.623Z,0.00
2022-11-02T04:13:41.615Z,0.00
2022-11-02T04:14:41.601Z,0.00
2022-11-02T04:15:41.595Z,0.00
2022-11-02T04:16:41.583Z,0.00
2022-11-02T04:17:41.557Z,0.00
2022-11-02T04:18:41.536Z,0.00
2022-11-02T04:19:45.443Z,0.00
2022-11-02T04:20:42.534Z,0.00
2022-11-02T04:21:41.547Z,0.00
2022-11-02T04:22:42.104Z,0.00
2022-11-02T04:23:41.509Z,0.00
2022-11-02T04:24:41.475Z,0.00
2022-11-02T04:25:41.483Z,0.00
2022-11-02T04:26:41.448Z,0.00
2022-11-02T04:27:41.467Z,0.00
2022-11-02T04:28:41.429Z,0.00
2022-11-02T04:29:41.429Z,0.00
2022-11-02T04:30:41.408Z,0.00
2022-11-02T04:31:41.431Z,0.00
2022-11-02T04:32:41.440Z,0.00
2022-11-02T04:33:41.387Z,0.00
2022-11-02T04:34:41.360Z,0.00
2022-11-02T04:35:41.368Z,0.00
2022-11-02T04:36:41.355Z,0.00
2022-11-02T04:37:41.337Z,0.00
2022-11-02T04:38:41.397Z,0.00
2022-11-02T04:39:41.336Z,0.00
2022-11-02T04:40:41.308Z,0.00
2022-11-02T04:41:41.298Z,0.00
2022-11-02T04:42:41.327Z,0.00
2022-11-02T04:43:41.308Z,0.00
2022-11-02T04:44:41.260Z,0.00
2022-11-02T04:45:41.247Z,0.00
2022-11-02T04:46:41.235Z,0.00
2022-11-02T04:47:41.219Z,0.00
2022-11-02T04:48:41.201Z,0.00
2022-11-02T04:49:41.233Z,0.00
2022-11-02T04:50:41.196Z,0.00
2022-11-02T04:51:45.723Z,0.00
2022-11-02T04:52:42.148Z,0.00
2022-11-02T04:53:41.219Z,0.00
2022-11-02T04:54:41.291Z,0.00
2022-11-02T04:55:41.315Z,0.00
2022-11-02T04:56:41.320Z,0.00
2022-11-02T04:58:41.368Z,0.00
2022-11-02T04:59:41.133Z,0.00
2022-11-02T05:00:41.143Z,0.00
2022-11-02T05:01:41.550Z,0.00
2022-11-02T05:02:41.547Z,0.00
2022-11-02T05:03:41.250Z,0.00
2022-11-02T05:04:41.168Z,0.00
2022-11-02T05:05:41.212Z,0.00
2022-11-02T05:06:41.201Z,0.00
2022-11-02T05:07:41.192Z,0.00
2022-11-02T05:08:41.208Z,0.00
2022-11-02T05:09:41.044Z,0.00
2022-11-02T05:10:41.090Z,0.00
2022-11-02T05:11:41.104Z,0.00
2022-11-02T05:12:40.943Z,0.00
2022-11-02T05:13:40.952Z,0.00
2022-11-02T05:14:40.913Z,0.00
2022-11-02T05:15:41.295Z,0.00
2022-11-02T05:16:40.886Z,0.00
2022-11-02T05:17:40.879Z,0.00
2022-11-02T05:18:40.897Z,0.00
2022-11-02T05:19:40.868Z,0.00
2022-11-02T05:20:40.840Z,0.00
2022-11-02T05:21:40.854Z,0.00
2022-11-02T05:22:40.848Z,0.00
2022-11-02T05:23:40.802Z,0.00
2022-11-02T05:24:40.812Z,0.00
2022-11-02T05:25:40.793Z,0.00
2022-11-02T05:26:40.804Z,0.00
2022-11-02T05:27:40.773Z,0.00
2022-11-02T05:28:40.753Z,0.00
2022-11-02T05:29:40.756Z,0.00
2022-11-02T05:30:40.744Z,0.00
2022-11-02T05:31:40.712Z,0.00
2022-11-02T05:32:40.733Z,0.00
2022-11-02T05:33:40.694Z,0.00
2022-11-02T05:34:40.684Z,0.00
2022-11-02T05:35:40.689Z,0.00
2022-11-02T05:36:40.684Z,0.00
2022-11-02T05:37:40.661Z,0.00
2022-11-02T05:38:40.646Z,0.00
2022-11-02T05:39:40.639Z,0.00
2022-11-02T05:40:40.643Z,0.00
2022-11-02T05:41:40.604Z,0.00
2022-11-02T05:42:40.660Z,0.00
2022-11-02T05:43:40.573Z,0.00
2022-11-02T05:44:40.594Z,0.00
2022-11-02T05:45:40.565Z,0.00
2022-11-02T05:46:40.557Z,0.00
2022-11-02T05:47:40.556Z,0.00
2022-11-02T05:48:40.772Z,0.00
2022-11-02T05:49:40.532Z,0.00
2022-11-02T05:50:40.554Z,0.00
2022-11-02T05:51:40.512Z,0.00
2022-11-02T05:52:40.484Z,0.00
2022-11-02T05:53:40.473Z,0.00
2022-11-02T05:54:40.504Z,0.00
2022-11-02T05:55:40.456Z,0.00
2022-11-02T05:56:40.438Z,0.00
2022-11-02T05:57:40.425Z,0.00
2022-11-02T05:58:40.442Z,0.00
2022-11-02T05:59:41.773Z,4.00
2022-11-02T06:00:40.405Z,4.00
2022-11-02T06:01:40.437Z,0.00
2022-11-02T06:02:40.418Z,4.00
2022-11-02T06:03:40.376Z,4.00
2022-11-02T06:04:40.364Z,4.00
2022-11-02T06:05:40.440Z,0.00
2022-11-02T06:06:40.344Z,4.00
2022-11-02T06:07:40.325Z,4.00
2022-11-02T06:08:40.296Z,4.00
2022-11-02T06:09:40.313Z,4.00
2022-11-02T06:10:40.305Z,8.00
2022-11-02T06:11:40.663Z,8.00
2022-11-02T06:12:40.264Z,8.00
2022-11-02T06:13:40.237Z,12.00
2022-11-02T06:14:40.239Z,16.00
2022-11-02T06:15:40.216Z,16.00
2022-11-02T06:16:40.245Z,16.00
2022-11-02T06:17:40.219Z,20.00
2022-11-02T06:18:40.197Z,24.00
2022-11-02T06:19:40.181Z,28.00
2022-11-02T06:20:40.181Z,32.00
2022-11-02T06:21:42.054Z,40.00
2022-11-02T06:22:40.137Z,40.00
2022-11-02T06:23:40.150Z,48.00
2022-11-02T06:24:40.128Z,52.00
2022-11-02T06:25:40.107Z,56.00
2022-11-02T06:26:40.137Z,60.00
2022-11-02T06:27:45.747Z,64.00
2022-11-02T06:28:41.078Z,68.00
2022-11-02T06:29:40.079Z,68.00
2022-11-02T06:30:40.081Z,76.00
2022-11-02T06:31:40.197Z,80.00
2022-11-02T06:32:40.069Z,88.00
2022-11-02T06:33:40.017Z,92.00
2022-11-02T06:34:40.019Z,92.00
2022-11-02T06:35:40.005Z,88.00
2022-11-02T06:36:39.989Z,92.00
2022-11-02T06:37:39.998Z,88.00
2022-11-02T06:38:39.981Z,92.00
2022-11-02T06:39:39.950Z,84.00
2022-11-02T06:40:39.958Z,76.00
2022-11-02T06:41:39.940Z,76.00
2022-11-02T06:42:45.164Z,68.00
2022-11-02T06:43:40.922Z,64.00
2022-11-02T06:44:39.925Z,68.00
2022-11-02T06:45:39.882Z,80.00
2022-11-02T06:46:39.873Z,80.00
2022-11-02T06:47:39.850Z,80.00
2022-11-02T06:48:39.881Z,76.00
2022-11-02T06:49:39.871Z,84.00
2022-11-02T06:50:39.850Z,100.00
2022-11-02T06:51:39.845Z,96.00
2022-11-02T06:52:39.817Z,112.00
2022-11-02T06:53:39.837Z,132.00
2022-11-02T06:54:39.802Z,144.00
2022-11-02T06:55:39.781Z,132.00
2022-11-02T06:56:39.801Z,164.00
2022-11-02T06:57:39.769Z,184.00
2022-11-02T06:58:39.764Z,192.00
2022-11-02T06:59:39.734Z,208.00
2022-11-02T07:00:39.755Z,220.00
2022-11-02T07:01:39.889Z,212.00
2022-11-02T07:02:39.721Z,220.00
2022-11-02T07:03:39.697Z,216.00
2022-11-02T07:04:39.671Z,212.00
2022-11-02T07:05:39.663Z,196.00
2022-11-02T07:06:39.670Z,172.00
2022-11-02T07:07:39.629Z,124.00
2022-11-02T07:08:39.629Z,128.00
2022-11-02T07:09:39.621Z,120.00
2022-11-02T07:10:39.622Z,152.00
2022-11-02T07:11:39.798Z,192.00
2022-11-02T07:12:39.583Z,204.00
2022-11-02T07:13:39.562Z,188.00
2022-11-02T07:14:39.561Z,196.00
2022-11-02T07:15:39.553Z,224.00
2022-11-02T07:16:39.553Z,220.00
2022-11-02T07:17:39.522Z,208.00
2022-11-02T07:18:39.530Z,244.00
2022-11-02T07:19:39.511Z,280.00
2022-11-02T07:20:39.504Z,256.00
2022-11-02T07:21:42.399Z,264.00
2022-11-02T07:22:40.489Z,264.00
2022-11-02T07:23:39.474Z,284.00
2022-11-02T07:24:39.481Z,288.00
2022-11-02T07:25:39.426Z,296.00
2022-11-02T07:26:39.501Z,316.00
2022-11-02T07:27:39.426Z,376.00
2022-11-02T07:28:39.397Z,428.00
2022-11-02T07:29:39.382Z,456.00
2022-11-02T07:30:39.396Z,468.00
2022-11-02T07:31:39.387Z,464.00
2022-11-02T07:32:39.380Z,500.00
2022-11-02T07:33:39.354Z,464.00
2022-11-02T07:34:39.342Z,460.00
2022-11-02T07:35:39.310Z,480.00
2022-11-02T07:36:39.303Z,472.00
2022-11-02T07:37:39.338Z,500.00
2022-11-02T07:38:39.288Z,480.00
2022-11-02T07:39:39.321Z,496.00
2022-11-02T07:40:39.261Z,492.00
2022-11-02T07:41:39.257Z,480.00
2022-11-02T07:42:39.258Z,520.00
2022-11-02T07:43:42.966Z,492.00
2022-11-02T07:44:39.254Z,520.00
2022-11-02T07:45:39.222Z,536.00
2022-11-02T07:46:39.215Z,528.00
2022-11-02T07:47:39.183Z,540.00
2022-11-02T07:48:39.207Z,568.00
2022-11-02T07:49:39.158Z,644.00
2022-11-02T07:50:39.155Z,648.00
2022-11-02T07:51:39.127Z,632.00
2022-11-02T07:52:39.147Z,620.00
2022-11-02T07:53:39.135Z,636.00
2022-11-02T07:54:44.318Z,688.00
2022-11-02T07:55:40.107Z,652.00
2022-11-02T07:56:39.087Z,664.00
2022-11-02T07:57:39.063Z,696.00
2022-11-02T07:58:39.066Z,652.00
2022-11-02T07:59:39.091Z,624.00
2022-11-02T08:00:39.059Z,596.00
2022-11-02T08:01:39.192Z,604.00
2022-11-02T08:02:39.079Z,624.00
2022-11-02T08:03:39.007Z,676.00
2022-11-02T08:04:42.256Z,704.00
2022-11-02T08:05:39.975Z,628.00
2022-11-02T08:06:39.067Z,496.00
2022-11-02T08:07:39.306Z,420.00
2022-11-02T08:08:39.038Z,404.00
2022-11-02T08:09:39.000Z,436.00
2022-11-02T08:10:40.499Z,444.00
2022-11-02T08:11:39.039Z,448.00
2022-11-02T08:12:39.036Z,480.00
2022-11-02T08:13:39.061Z,380.00
2022-11-02T08:14:39.057Z,416.00
2022-11-02T08:15:39.126Z,492.00
2022-11-02T08:16:39.319Z,472.00
2022-11-02T08:17:38.923Z,476.00
2022-11-02T08:18:39.042Z,392.00
2022-11-02T08:19:39.088Z,500.00
2022-11-02T08:20:39.141Z,504.00
2022-11-02T08:21:38.868Z,568.00
2022-11-02T08:22:38.789Z,620.00
2022-11-02T08:23:38.768Z,584.00
2022-11-02T08:24:38.820Z,584.00
2022-11-02T08:25:38.778Z,608.00
2022-11-02T08:26:41.043Z,704.00
2022-11-02T08:27:39.723Z,696.00
2022-11-02T08:28:38.719Z,776.00
2022-11-02T08:29:38.736Z,788.00
2022-11-02T08:30:38.768Z,780.00
2022-11-02T08:31:38.739Z,728.00
2022-11-02T08:32:38.740Z,708.00
2022-11-02T08:33:38.752Z,656.00
2022-11-02T08:34:38.758Z,720.00
2022-11-02T08:35:38.685Z,736.00
2022-11-02T08:36:38.807Z,724.00
2022-11-02T08:37:38.771Z,788.00
2022-11-02T08:38:38.757Z,844.00
2022-11-02T08:39:38.841Z,808.00
2022-11-02T08:40:38.836Z,884.00
2022-11-02T08:41:38.743Z,912.00
2022-11-02T08:42:38.669Z,924.00
2022-11-02T08:43:38.604Z,944.00
2022-11-02T08:44:42.360Z,928.00
2022-11-02T08:46:12.519Z,944.00
2022-11-02T08:46:39.535Z,936.00
2022-11-02T08:47:38.562Z,1152.00
2022-11-02T08:48:38.512Z,992.00
2022-11-02T08:49:38.480Z,912.00
2022-11-02T08:50:38.504Z,852.00
2022-11-02T08:51:38.448Z,900.00
2022-11-02T08:52:40.671Z,904.00
2022-11-02T08:53:38.423Z,844.00
2022-11-02T08:54:38.440Z,832.00
2022-11-02T08:55:38.418Z,868.00
2022-11-02T08:56:38.404Z,892.00
2022-11-02T08:57:38.380Z,936.00
2022-11-02T08:58:38.419Z,1016.00
2022-11-02T08:59:38.372Z,864.00
2022-11-02T09:00:38.571Z,1076.00
2022-11-02T09:01:38.387Z,824.00
2022-11-02T09:02:38.386Z,772.00
2022-11-02T09:03:38.313Z,728.00
2022-11-02T09:04:38.360Z,740.00
2022-11-02T09:05:38.312Z,876.00
2022-11-02T09:06:38.313Z,904.00
2022-11-02T09:07:38.313Z,960.00
2022-11-02T09:08:38.373Z,1020.00
2022-11-02T09:09:38.248Z,940.00
2022-11-02T09:10:38.245Z,972.00
2022-11-02T09:11:38.292Z,836.00
2022-11-02T09:12:38.220Z,928.00
2022-11-02T09:13:38.361Z,916.00
2022-11-02T09:14:38.229Z,944.00
2022-11-02T09:15:38.188Z,940.00
2022-11-02T09:16:41.471Z,1056.00
2022-11-02T09:17:38.161Z,1020.00
2022-11-02T09:18:38.152Z,1096.00
2022-11-02T09:19:38.153Z,1132.00
2022-11-02T09:20:38.144Z,1160.00
2022-11-02T09:21:38.105Z,1176.00
2022-11-02T09:22:38.105Z,1196.00
2022-11-02T09:23:38.131Z,1088.00
2022-11-02T09:24:38.125Z,1036.00
2022-11-02T09:25:38.150Z,1040.00
2022-11-02T09:26:38.085Z,1068.00
2022-11-02T09:27:38.046Z,1048.00
2022-11-02T09:28:38.039Z,1032.00
2022-11-02T09:29:38.018Z,1124.00
2022-11-02T09:30:38.037Z,1088.00
2022-11-02T09:31:37.997Z,1048.00
2022-11-02T09:32:38.001Z,1108.00
2022-11-02T09:33:38.016Z,1000.00
2022-11-02T09:34:38.004Z,1208.00
2022-11-02T09:35:38.107Z,1312.00
2022-11-02T09:36:38.086Z,1444.00
2022-11-02T09:37:38.100Z,1148.00
2022-11-02T09:38:38.149Z,1044.00
2022-11-02T09:39:38.185Z,1120.00
2022-11-02T09:40:38.169Z,1376.00
2022-11-02T09:41:37.905Z,1120.00
2022-11-02T09:42:37.885Z,1024.00
2022-11-02T09:43:37.898Z,1268.00
2022-11-02T09:44:37.845Z,1068.00
2022-11-02T09:45:37.931Z,1328.00
2022-11-02T09:46:40.090Z,1348.00
2022-11-02T09:48:11.206Z,1176.00
2022-11-02T09:48:38.812Z,1320.00
2022-11-02T09:49:37.846Z,1168.00
2022-11-02T09:50:37.798Z,1148.00
2022-11-02T09:51:37.811Z,1100.00
2022-11-02T09:52:37.769Z,1084.00
2022-11-02T09:53:37.769Z,1472.00
2022-11-02T09:54:37.774Z,1204.00
2022-11-02T09:55:37.809Z,1132.00
2022-11-02T09:56:37.726Z,1192.00
2022-11-02T09:57:37.727Z,1180.00
2022-11-02T09:58:37.709Z,1520.00
2022-11-02T09:59:37.697Z,1516.00
2022-11-02T10:00:37.693Z,1536.00
2022-11-02T10:01:37.741Z,1300.00
2022-11-02T10:02:37.685Z,1740.00
2022-11-02T10:03:37.669Z,1568.00
2022-11-02T10:04:37.637Z,1148.00
2022-11-02T10:05:37.744Z,1284.00
2022-11-02T10:06:37.628Z,1548.00
2022-11-02T10:07:37.626Z,1144.00
2022-11-02T10:08:37.597Z,1176.00
2022-11-02T10:09:37.589Z,1188.00
2022-11-02T10:10:37.573Z,1208.00
2022-11-02T10:12:37.558Z,1396.00
2022-11-02T10:13:37.537Z,1424.00
2022-11-02T10:14:37.518Z,1588.00
2022-11-02T10:15:37.561Z,1332.00
2022-11-02T10:16:37.609Z,1376.00
2022-11-02T10:17:37.497Z,1352.00
2022-11-02T10:18:37.488Z,1320.00
2022-11-02T10:19:37.461Z,1768.00
2022-11-02T10:20:37.461Z,1796.00
2022-11-02T10:21:37.449Z,1868.00
2022-11-02T10:22:37.461Z,1388.00
2022-11-02T10:23:37.431Z,1512.00
2022-11-02T10:24:37.410Z,2008.00
2022-11-02T10:25:37.437Z,1932.00
2022-11-02T10:26:37.393Z,1804.00
2022-11-02T10:27:37.599Z,1608.00
2022-11-02T10:28:37.366Z,1512.00
2022-11-02T10:29:38.032Z,1492.00
2022-11-02T10:30:37.363Z,1964.00
2022-11-02T10:31:37.330Z,1512.00
2022-11-02T10:32:37.385Z,1676.00
2022-11-02T10:33:37.322Z,1468.00
2022-11-02T10:34:37.296Z,1552.00
2022-11-02T10:35:51.364Z,1936.00
2022-11-02T10:36:38.271Z,2068.00
2022-11-02T10:37:37.291Z,1996.00
2022-11-02T10:38:37.274Z,2108.00
2022-11-02T10:39:37.262Z,2032.00
2022-11-02T10:40:37.233Z,1936.00
2022-11-02T10:41:37.246Z,1908.00
2022-11-02T10:42:37.244Z,2060.00
2022-11-02T10:43:37.189Z,2208.00
2022-11-02T10:44:37.195Z,1568.00
2022-11-02T10:45:37.175Z,1576.00
2022-11-02T10:46:37.166Z,1760.00
2022-11-02T10:47:37.154Z,1876.00
2022-11-02T10:48:37.158Z,2044.00
2022-11-02T10:49:37.245Z,1584.00
2022-11-02T10:50:37.147Z,1808.00
2022-11-02T10:51:37.111Z,1784.00
2022-11-02T10:52:37.098Z,2024.00
2022-11-02T10:53:41.109Z,1392.00
2022-11-02T10:54:37.074Z,1892.00
2022-11-02T10:55:37.064Z,1308.00
2022-11-02T10:56:37.042Z,1912.00
2022-11-02T10:57:37.074Z,1968.00
2022-11-02T10:58:37.023Z,1924.00
2022-11-02T10:59:37.048Z,1928.00
2022-11-02T11:00:37.083Z,1960.00
2022-11-02T11:01:37.035Z,2124.00
2022-11-02T11:02:37.018Z,1416.00
2022-11-02T11:03:36.986Z,1336.00
2022-11-02T11:04:36.984Z,1216.00
2022-11-02T11:05:36.966Z,1944.00
2022-11-02T11:06:36.925Z,1228.00
2022-11-02T11:07:36.926Z,1160.00
2022-11-02T11:08:36.906Z,1292.00
2022-11-02T11:09:37.056Z,1036.00
2022-11-02T11:10:36.907Z,980.00
2022-11-02T11:11:36.914Z,1680.00
2022-11-02T11:12:36.892Z,1700.00
2022-11-02T11:16:37.859Z,1376.00
2022-11-02T11:19:38.422Z,1088.00
2022-11-02T11:20:36.782Z,1060.00
2022-11-02T11:21:36.783Z,1788.00
2022-11-02T11:22:36.775Z,1804.00
2022-11-02T11:23:36.766Z,1816.00
2022-11-02T11:24:36.779Z,1764.00
2022-11-02T11:25:37.001Z,1760.00
2022-11-02T11:26:36.743Z,1692.00
2022-11-02T11:27:36.759Z,1688.00
2022-11-02T11:28:36.791Z,1388.00
2022-11-02T11:29:36.807Z,1044.00
2022-11-02T11:30:58.970Z,1736.00
2022-11-02T11:31:37.692Z,1744.00
2022-11-02T11:32:37.279Z,1716.00
2022-11-02T11:33:36.915Z,1744.00
2022-11-02T11:34:36.739Z,1812.00
2022-11-02T11:35:36.636Z,1900.00
2022-11-02T11:36:36.597Z,2104.00
2022-11-02T11:37:36.583Z,2076.00
2022-11-02T11:38:36.590Z,1976.00
2022-11-02T11:39:36.611Z,2036.00
2022-11-02T11:40:36.567Z,1288.00
2022-11-02T11:41:36.883Z,2072.00
2022-11-02T11:42:36.647Z,1992.00
2022-11-02T11:43:36.579Z,1896.00
2022-11-02T11:44:36.636Z,1756.00
2022-11-02T11:45:36.591Z,1452.00
2022-11-02T11:46:36.631Z,1264.00
2022-11-02T11:47:36.631Z,1880.00
2022-11-02T11:48:36.630Z,1012.00
2022-11-02T11:50:37.439Z,1064.00
2022-11-02T11:51:36.671Z,1020.00
2022-11-02T11:52:36.631Z,836.00
2022-11-02T11:53:36.661Z,1656.00
2022-11-02T11:54:36.592Z,1676.00
2022-11-02T11:55:36.856Z,1700.00
2022-11-02T11:56:36.535Z,1692.00
2022-11-02T11:58:36.388Z,884.00
2022-11-02T11:59:36.344Z,880.00
2022-11-02T12:00:36.348Z,896.00
2022-11-02T12:01:36.384Z,1732.00
2022-11-02T12:02:42.855Z,848.00
2022-11-02T12:03:37.305Z,916.00
2022-11-02T12:04:36.271Z,1456.00
2022-11-02T12:05:36.284Z,908.00
2022-11-02T12:06:36.264Z,1716.00
2022-11-02T12:07:36.252Z,1636.00
2022-11-02T12:08:36.272Z,1188.00
2022-11-02T12:09:36.249Z,804.00
2022-11-02T12:10:36.205Z,1800.00
2022-11-02T12:11:36.224Z,1232.00
2022-11-02T12:12:36.194Z,1632.00
2022-11-02T12:13:36.192Z,1956.00
2022-11-02T12:14:36.183Z,1972.00
2022-11-02T12:15:36.180Z,1844.00
2022-11-02T12:16:36.184Z,2088.00
2022-11-02T12:17:36.163Z,1144.00
2022-11-02T12:18:36.132Z,2036.00
2022-11-02T12:19:36.129Z,1036.00
2022-11-02T12:20:36.109Z,940.00
2022-11-02T12:21:36.108Z,916.00
2022-11-02T12:22:36.083Z,1836.00
2022-11-02T12:23:36.064Z,1836.00
2022-11-02T12:24:36.068Z,1908.00
2022-11-02T12:25:36.080Z,1980.00
2022-11-02T12:26:36.048Z,1984.00
2022-11-02T12:27:36.023Z,1956.00
2022-11-02T12:28:36.020Z,1960.00
2022-11-02T12:29:35.996Z,1976.00
2022-11-02T12:30:35.991Z,1988.00
2022-11-02T12:31:36.016Z,1972.00
2022-11-02T12:32:35.964Z,2024.00
2022-11-02T12:33:35.975Z,2008.00
2022-11-02T12:34:35.965Z,1900.00
2022-11-02T12:35:35.944Z,1864.00
2022-11-02T12:36:39.547Z,1844.00
2022-11-02T12:37:41.155Z,1872.00
2022-11-02T12:38:36.118Z,1856.00
2022-11-02T12:39:35.901Z,1848.00
2022-11-02T12:40:35.868Z,1836.00
2022-11-02T12:41:35.884Z,1856.00
2022-11-02T12:42:37.987Z,1924.00
2022-11-02T12:43:37.093Z,1944.00
2022-11-02T12:44:35.828Z,1936.00
2022-11-02T12:45:37.461Z,1880.00
2022-11-02T12:46:39.724Z,1852.00
2022-11-02T12:47:36.808Z,1848.00
2022-11-02T12:48:35.787Z,1824.00
2022-11-02T12:49:36.427Z,1772.00
2022-11-02T12:50:35.770Z,1760.00
2022-11-02T12:51:35.740Z,1760.00
2022-11-02T12:52:35.749Z,1764.00
2022-11-02T12:53:35.738Z,1788.00
2022-11-02T12:54:41.398Z,1784.00
2022-11-02T12:55:38.724Z,1776.00
2022-11-02T12:56:35.681Z,1728.00
2022-11-02T12:57:35.720Z,1716.00